Time;durP1;ratioP1;P1;durP2;ratioP2;P2;SDS_P1;SDS_P2;PMS_P1;PMS_P2;Temp;Humidity;BMP_temperature;BMP_pressure;BME280_temperature;BME280_humidity;BME280_pressure;Samples;Min_cycle;Max_cycle;Signal;HPM_P1;HPM_P2
2021/05/07 00:01:25;;;;;;;2.90;2.80;;;;;;;4.95;82.91;100444.72;4415645;32;20514;-72
2021/05/07 00:03:51;;;;;;;2.95;2.85;;;;;;;4.86;82.67;100446.78;4430793;32;20097;-71
2021/05/07 00:06:16;;;;;;;3.35;3.25;;;;;;;4.70;82.86;100451.63;4410349;32;20088;-72
2021/05/07 00:08:42;;;;;;;5.03;3.10;;;;;;;4.53;82.77;100447.81;4416676;32;20578;-71
2021/05/07 00:11:09;;;;;;;3.20;3.00;;;;;;;4.40;83.37;100454.28;4422025;32;20083;-71
2021/05/07 00:13:35;;;;;;;2.97;2.87;;;;;;;4.31;83.29;100457.13;4424220;32;20083;-70
2021/05/07 00:16:00;;;;;;;3.17;3.05;;;;;;;4.18;83.90;100459.25;4431592;32;20104;-72
2021/05/07 00:18:26;;;;;;;2.70;2.60;;;;;;;4.14;84.04;100452.47;4416897;32;20088;-71
2021/05/07 00:20:51;;;;;;;3.00;2.90;;;;;;;4.04;84.69;100461.41;4419367;32;20868;-70
2021/05/07 00:23:17;;;;;;;3.28;3.17;;;;;;;4.00;84.82;100458.91;4413165;32;20113;-71
2021/05/07 00:25:44;;;;;;;2.72;2.62;;;;;;;3.95;85.03;100458.19;4416858;32;20083;-71
2021/05/07 00:28:10;;;;;;;3.33;3.22;;;;;;;4.02;85.14;100473.59;4414157;32;20088;-71
2021/05/07 00:30:36;;;;;;;2.90;2.80;;;;;;;4.06;85.04;100472.59;4422034;32;20225;-71
2021/05/07 00:33:02;;;;;;;2.90;2.80;;;;;;;4.07;84.82;100469.09;4416385;32;20178;-71
2021/05/07 00:35:27;;;;;;;3.00;2.90;;;;;;;4.07;85.11;100466.50;4424193;32;20076;-71
2021/05/07 00:37:53;;;;;;;2.80;2.70;;;;;;;4.05;85.70;100465.69;4411793;32;20068;-71
2021/05/07 00:40:18;;;;;;;3.03;2.85;;;;;;;4.02;85.65;100461.44;4419751;32;20511;-72
2021/05/07 00:42:44;;;;;;;3.65;3.45;;;;;;;4.02;85.55;100471.84;4415457;32;20750;-72
2021/05/07 00:45:10;;;;;;;2.92;2.83;;;;;;;3.95;85.99;100457.34;4412753;32;20605;-71
2021/05/07 00:47:38;;;;;;;3.08;2.97;;;;;;;3.97;85.53;100461.59;4417769;32;20072;-71
2021/05/07 00:50:07;;;;;;;2.90;2.80;;;;;;;4.00;85.40;100473.63;4418392;32;20841;-72
2021/05/07 00:52:34;;;;;;;2.95;2.85;;;;;;;3.93;85.58;100472.09;4420696;32;20080;-71
2021/05/07 00:55:01;;;;;;;2.75;2.65;;;;;;;3.93;86.05;100470.38;4416615;32;20077;-71
2021/05/07 00:57:27;;;;;;;2.80;2.70;;;;;;;3.96;86.00;100472.00;4432960;32;20912;-71
2021/05/07 00:59:52;;;;;;;2.70;2.60;;;;;;;3.92;86.00;100470.41;4415861;32;20123;-71
2021/05/07 01:02:18;;;;;;;2.85;2.75;;;;;;;4.03;85.72;100481.34;4414693;32;20945;-72
2021/05/07 01:04:43;;;;;;;2.80;2.70;;;;;;;4.08;86.07;100482.03;4412931;32;20076;-72
2021/05/07 01:07:08;;;;;;;2.90;2.80;;;;;;;4.13;86.52;100480.19;4414913;32;20091;-71
2021/05/07 01:09:34;;;;;;;3.10;3.00;;;;;;;4.19;86.25;100473.97;4417929;32;20068;-71
2021/05/07 01:11:59;;;;;;;3.80;2.95;;;;;;;4.20;86.01;100468.69;4430487;32;20077;-71
2021/05/07 01:14:25;;;;;;;3.00;2.90;;;;;;;4.22;86.53;100473.00;4413357;32;20169;-71
2021/05/07 01:16:50;;;;;;;2.70;2.60;;;;;;;4.29;86.03;100471.91;4416778;32;20169;-71
2021/05/07 01:19:15;;;;;;;2.90;2.80;;;;;;;4.35;86.17;100476.94;4416896;32;20065;-71
2021/05/07 01:21:41;;;;;;;2.70;2.60;;;;;;;4.18;85.74;100454.91;4426450;32;20845;-71
2021/05/07 01:24:07;;;;;;;3.15;3.05;;;;;;;4.22;86.15;100471.25;4412496;32;20068;-72
2021/05/07 01:26:35;;;;;;;2.90;2.80;;;;;;;4.20;85.75;100475.66;4414636;32;20080;-71
2021/05/07 01:29:08;;;;;;;2.90;2.80;;;;;;;4.16;86.08;100492.22;4428339;32;20401;-71
2021/05/07 01:31:34;;;;;;;2.75;2.65;;;;;;;4.10;85.92;100482.84;4418266;32;20076;-71
2021/05/07 01:33:59;;;;;;;2.80;2.70;;;;;;;4.02;86.11;100481.37;4428475;32;20060;-71
2021/05/07 01:36:25;;;;;;;2.60;2.50;;;;;;;3.95;86.20;100483.31;4419939;32;20064;-71
2021/05/07 01:38:50;;;;;;;2.87;2.78;;;;;;;3.83;86.12;100483.63;4417273;32;20724;-71
2021/05/07 01:41:15;;;;;;;2.70;2.60;;;;;;;3.75;86.26;100482.13;4418921;32;20716;-71
2021/05/07 01:43:41;;;;;;;3.20;3.10;;;;;;;3.78;86.83;100491.56;4418827;32;20076;-72
2021/05/07 01:46:06;;;;;;;2.85;2.75;;;;;;;3.74;87.05;100490.78;4418694;32;20087;-71
2021/05/07 01:48:31;;;;;;;2.80;2.70;;;;;;;3.72;87.16;100495.16;4420030;32;20081;-71
2021/05/07 01:50:57;;;;;;;3.15;3.05;;;;;;;2.72;86.74;100326.66;4414618;32;20072;-71
2021/05/07 01:53:22;;;;;;;2.90;2.80;;;;;;;3.76;86.72;100494.19;4415117;32;20490;-72
2021/05/07 01:55:48;;;;;;;2.80;2.70;;;;;;;3.85;87.31;100498.28;4413461;32;20074;-71
2021/05/07 01:58:15;;;;;;;2.78;2.67;;;;;;;3.90;87.13;100500.75;4421914;32;20108;-72
2021/05/07 02:00:40;;;;;;;3.55;3.40;;;;;;;3.87;86.60;100500.81;4412895;32;20476;-72
2021/05/07 02:03:06;;;;;;;2.58;2.47;;;;;;;3.84;86.73;100496.56;4421237;32;20585;-72
2021/05/07 02:05:33;;;;;;;2.90;2.80;;;;;;;3.84;86.73;100504.38;4418066;32;20578;-72
2021/05/07 02:08:01;;;;;;;2.70;2.60;;;;;;;3.82;87.15;100511.34;4410065;32;20182;-72
2021/05/07 02:10:27;;;;;;;3.33;3.08;;;;;;;3.79;87.26;100508.84;4428379;32;20088;-71
2021/05/07 02:12:54;;;;;;;2.80;2.70;;;;;;;3.80;86.86;100505.34;4411512;32;20530;-71
2021/05/07 02:15:20;;;;;;;4.80;4.47;;;;;;;3.87;86.64;100514.69;4426843;32;20587;-72
2021/05/07 02:17:45;;;;;;;3.15;3.05;;;;;;;3.86;86.59;100510.34;4415110;32;20087;-71
2021/05/07 02:20:13;;;;;;;2.90;2.80;;;;;;;3.82;86.97;100516.53;4416907;32;20570;-71
2021/05/07 02:22:39;;;;;;;3.00;2.90;;;;;;;3.79;87.21;100503.66;4417735;32;20079;-71
2021/05/07 02:25:04;;;;;;;3.00;2.90;;;;;;;3.81;87.22;100512.25;4411404;32;20080;-72
2021/05/07 02:27:30;;;;;;;2.60;2.50;;;;;;;3.80;87.14;100521.75;4414038;32;20482;-71
2021/05/07 02:29:55;;;;;;;2.85;2.75;;;;;;;3.79;87.56;100527.00;4418109;32;20090;-71
2021/05/07 02:32:21;;;;;;;3.08;2.97;;;;;;;3.80;88.16;100526.09;4415193;32;20088;-72
2021/05/07 02:34:46;;;;;;;2.97;2.87;;;;;;;3.84;87.42;100535.50;4430865;32;20115;-72
2021/05/07 02:37:11;;;;;;;2.72;2.62;;;;;;;3.86;88.01;100531.13;4419361;32;24855;-71
2021/05/07 02:39:37;;;;;;;2.60;2.50;;;;;;;3.93;87.25;100527.50;4424320;32;20088;-71
2021/05/07 02:42:02;;;;;;;2.95;2.85;;;;;;;3.93;87.49;100526.59;4408815;32;20453;-71
2021/05/07 02:44:27;;;;;;;2.80;2.70;;;;;;;3.90;87.60;100522.38;4411157;32;20064;-71
2021/05/07 02:46:53;;;;;;;2.72;2.62;;;;;;;3.89;87.86;100525.00;4419588;32;20068;-71
2021/05/07 02:49:18;;;;;;;3.00;2.90;;;;;;;2.75;87.99;100352.50;4413623;32;20475;-71
2021/05/07 02:51:44;;;;;;;2.90;2.80;;;;;;;3.86;87.93;100528.53;4422544;32;20237;-71
2021/05/07 02:54:09;;;;;;;3.30;3.10;;;;;;;3.89;87.70;100531.06;4416215;32;20084;-71
2021/05/07 02:56:34;;;;;;;2.90;2.80;;;;;;;3.90;87.97;100532.75;4420814;32;20067;-71
2021/05/07 02:59:00;;;;;;;2.58;2.47;;;;;;;3.88;87.72;100529.34;4412333;32;20096;-71
2021/05/07 03:01:25;;;;;;;3.00;2.90;;;;;;;3.95;87.59;100546.47;4416330;32;20094;-72
2021/05/07 03:03:51;;;;;;;2.70;2.60;;;;;;;3.96;88.25;100536.94;4412314;32;20092;-71
2021/05/07 03:06:16;;;;;;;2.60;2.50;;;;;;;3.95;87.58;100537.84;4420301;32;20088;-72
2021/05/07 03:08:41;;;;;;;2.90;2.80;;;;;;;3.98;87.44;100556.75;4413907;32;20061;-72
2021/05/07 03:11:07;;;;;;;3.28;3.08;;;;;;;3.98;87.66;100556.75;4414906;32;20522;-71
2021/05/07 03:13:32;;;;;;;2.97;2.87;;;;;;;3.96;87.30;100552.50;4411349;32;20088;-71
2021/05/07 03:15:58;;;;;;;3.10;2.92;;;;;;;3.86;87.45;100538.91;4433863;32;20107;-71
2021/05/07 03:18:23;;;;;;;2.75;2.65;;;;;;;4.04;87.54;100565.28;4428232;32;20092;-71
2021/05/07 03:20:50;;;;;;;3.00;2.90;;;;;;;4.03;87.36;100566.16;4425525;32;20700;-71
2021/05/07 03:23:15;;;;;;;2.50;2.40;;;;;;;4.01;87.41;100571.41;4419991;32;20166;-71
2021/05/07 03:25:41;;;;;;;2.83;2.72;;;;;;;4.00;87.70;100570.53;4417672;32;20068;-71
2021/05/07 03:28:06;;;;;;;3.00;2.90;;;;;;;4.00;87.91;100574.91;4421068;32;20716;-71
2021/05/07 03:30:33;;;;;;;2.92;2.83;;;;;;;3.93;88.29;100579.41;4418945;32;20181;-71
2021/05/07 03:32:58;;;;;;;2.55;2.45;;;;;;;3.93;87.72;100574.22;4417887;32;20076;-71
2021/05/07 03:35:24;;;;;;;2.58;2.47;;;;;;;3.88;87.69;100575.22;4420495;32;20486;-71
2021/05/07 03:37:49;;;;;;;2.60;2.50;;;;;;;3.80;88.08;100578.88;4416875;32;20157;-71
2021/05/07 03:40:14;;;;;;;2.70;2.60;;;;;;;3.79;88.29;100587.56;4416656;32;20482;-71
2021/05/07 03:42:40;;;;;;;2.83;2.72;;;;;;;3.76;88.30;100591.97;4420002;32;20079;-71
2021/05/07 03:45:06;;;;;;;2.87;2.78;;;;;;;3.66;87.99;100591.34;4415764;32;20088;-72
2021/05/07 03:47:31;;;;;;;2.90;2.70;;;;;;;3.58;88.37;100590.69;4410138;32;20083;-71
2021/05/07 03:49:57;;;;;;;2.70;2.60;;;;;;;3.51;87.80;100599.53;4428083;32;20089;-72
2021/05/07 03:52:22;;;;;;;4.05;3.03;;;;;;;3.39;88.67;100593.75;4422862;32;20064;-72
2021/05/07 03:54:47;;;;;;;3.03;2.83;;;;;;;3.39;87.94;100600.69;4418639;32;20068;-70
2021/05/07 03:57:13;;;;;;;2.80;2.70;;;;;;;3.25;88.29;100597.53;4420672;32;20121;-72
2021/05/07 03:59:38;;;;;;;2.70;2.60;;;;;;;3.15;88.58;100597.78;4422311;32;20601;-69
2021/05/07 04:02:04;;;;;;;2.70;2.60;;;;;;;3.12;88.24;100594.41;4415076;32;20064;-70
2021/05/07 04:04:31;;;;;;;2.60;2.50;;;;;;;2.86;88.42;100567.31;4416512;32;20077;-69
2021/05/07 04:06:56;;;;;;;2.50;2.40;;;;;;;3.07;88.03;100607.47;4425321;32;20087;-70
2021/05/07 04:09:30;;;;;;;2.53;2.42;;;;;;;3.09;88.72;100613.47;4424209;32;20181;-71
2021/05/07 04:12:10;;;;;;;2.70;2.60;;;;;;;3.10;88.83;100622.09;4410837;32;20084;-70
2021/05/07 04:14:35;;;;;;;2.70;2.60;;;;;;;3.13;89.01;100628.06;4421327;32;20072;-70
2021/05/07 04:17:02;;;;;;;2.90;2.80;;;;;;;3.17;88.56;100647.84;4416335;32;20069;-69
2021/05/07 04:19:28;;;;;;;2.60;2.50;;;;;;;2.46;89.26;100468.91;4410786;32;20681;-70
2021/05/07 04:21:53;;;;;;;2.80;2.70;;;;;;;3.76;89.51;100628.31;4422716;32;20130;-70
2021/05/07 04:24:18;;;;;;;2.62;2.53;;;;;;;4.18;90.30;100636.72;4415986;32;20573;-70
2021/05/07 04:26:44;;;;;;;2.70;2.60;;;;;;;4.56;89.92;100626.19;4413536;32;20893;-70
2021/05/07 04:29:09;;;;;;;3.03;2.92;;;;;;;5.02;88.78;100637.81;4416776;32;20185;-69
2021/05/07 04:31:34;;;;;;;2.80;2.70;;;;;;;5.36;87.32;100629.81;4417785;32;20083;-69
2021/05/07 04:34:00;;;;;;;4.87;4.68;;;;;;;5.49;85.30;100577.38;4413954;32;20676;-70
2021/05/07 04:36:25;;;;;;;2.95;2.85;;;;;;;6.14;83.42;100634.22;4412930;32;20080;-70
2021/05/07 04:38:55;;;;;;;2.97;2.87;;;;;;;6.12;80.35;100637.78;4412294;32;20092;-70
2021/05/07 04:41:20;;;;;;;3.20;3.10;;;;;;;5.98;78.10;100613.06;4416594;32;20182;-70
2021/05/07 04:43:45;;;;;;;3.10;3.00;;;;;;;5.86;77.93;100527.50;4412382;32;20489;-70
2021/05/07 04:46:11;;;;;;;3.08;2.97;;;;;;;6.92;77.80;100633.13;4411633;32;20614;-71
2021/05/07 04:48:36;;;;;;;3.22;3.12;;;;;;;6.98;75.14;100639.88;4414096;32;20297;-69
2021/05/07 04:51:01;;;;;;;3.30;3.20;;;;;;;6.68;75.14;100632.28;4413913;32;20104;-69
2021/05/07 04:53:27;;;;;;;4.00;3.80;;;;;;;6.74;76.06;100642.50;4414354;32;20116;-69
2021/05/07 04:55:52;;;;;;;3.90;3.70;;;;;;;6.61;75.91;100638.62;4377411;32;20140;-69
2021/05/07 04:58:17;;;;;;;3.42;3.33;;;;;;;6.38;76.34;100632.50;4375057;32;20068;-69
2021/05/07 05:00:43;;;;;;;3.28;3.17;;;;;;;5.05;77.32;100440.06;4382250;32;20575;-70
2021/05/07 05:03:08;;;;;;;3.75;3.55;;;;;;;6.13;77.35;100631.66;4375995;32;20156;-70
2021/05/07 05:05:34;;;;;;;3.40;3.30;;;;;;;5.96;77.61;100621.84;4392214;32;20061;-69
2021/05/07 05:07:59;;;;;;;3.40;3.30;;;;;;;6.20;77.58;100646.19;4386977;32;20076;-70
2021/05/07 05:10:24;;;;;;;4.12;3.92;;;;;;;6.07;78.13;100655.31;4388225;32;20065;-70
2021/05/07 05:12:50;;;;;;;3.17;3.08;;;;;;;6.08;77.50;100664.84;4387796;32;20248;-69
2021/05/07 05:15:15;;;;;;;4.07;3.87;;;;;;;5.94;77.41;100666.12;4393492;32;20065;-70
2021/05/07 05:17:41;;;;;;;3.72;3.53;;;;;;;6.14;77.53;100649.00;4400663;32;20080;-69
2021/05/07 05:20:07;;;;;;;3.12;3.03;;;;;;;5.98;77.53;100665.16;4395101;32;20188;-70
2021/05/07 05:22:33;;;;;;;3.78;3.58;;;;;;;5.79;77.92;100656.22;4391831;32;20097;-70
2021/05/07 05:25:03;;;;;;;3.30;3.20;;;;;;;5.84;78.38;100671.72;4410785;32;20608;-71
2021/05/07 05:27:29;;;;;;;3.20;3.10;;;;;;;5.71;78.65;100672.13;4410197;32;20225;-70
2021/05/07 05:29:54;;;;;;;3.10;3.00;;;;;;;5.64;79.18;100688.81;4398742;32;20920;-71
2021/05/07 05:32:19;;;;;;;3.47;3.20;;;;;;;4.42;79.23;100483.66;4404460;32;20072;-71
2021/05/07 05:34:45;;;;;;;3.67;3.47;;;;;;;5.57;80.06;100682.09;4412686;32;20048;-70
2021/05/07 05:37:11;;;;;;;3.53;3.40;;;;;;;5.75;79.84;100676.31;4401332;32;20133;-70
2021/05/07 05:39:36;;;;;;;3.65;3.40;;;;;;;5.91;79.05;100689.69;4412687;32;20769;-70
2021/05/07 05:42:01;;;;;;;3.50;3.30;;;;;;;5.90;79.55;100693.19;4420439;32;20111;-70
2021/05/07 05:44:27;;;;;;;3.00;2.90;;;;;;;5.77;79.66;100695.34;4402275;32;20068;-70
2021/05/07 05:46:52;;;;;;;4.53;4.32;;;;;;;5.71;79.52;100705.97;4416866;32;20087;-71
2021/05/07 05:49:17;;;;;;;4.15;3.95;;;;;;;5.53;80.08;100709.13;4413536;32;20851;-71
2021/05/07 05:51:43;;;;;;;3.00;2.90;;;;;;;4.76;82.64;100670.63;4427022;32;20076;-70
2021/05/07 05:54:08;;;;;;;3.00;2.90;;;;;;;5.07;81.37;100731.31;4398219;32;20057;-71
2021/05/07 05:56:34;;;;;;;3.25;3.05;;;;;;;3.80;81.13;100541.69;4404825;32;20983;-71
2021/05/07 05:58:59;;;;;;;3.40;3.20;;;;;;;4.76;82.15;100742.59;4415638;32;20091;-70
2021/05/07 06:01:24;;;;;;;2.75;2.65;;;;;;;4.59;82.15;100745.63;4403873;32;20661;-70
2021/05/07 06:03:50;;;;;;;2.90;2.80;;;;;;;4.24;81.93;100736.16;4399791;32;20076;-70
2021/05/07 06:06:15;;;;;;;2.87;2.78;;;;;;;4.30;81.43;100725.63;4403146;32;20785;-70
2021/05/07 06:08:40;;;;;;;2.80;2.70;;;;;;;4.31;81.32;100716.91;4415831;32;20068;-70
2021/05/07 06:11:06;;;;;;;2.90;2.80;;;;;;;4.31;81.29;100710.00;4400759;32;20625;-69
2021/05/07 06:13:31;;;;;;;5.95;5.00;;;;;;;4.47;81.45;100710.44;4410322;32;20135;-70
2021/05/07 06:15:57;;;;;;;2.80;2.70;;;;;;;4.55;81.37;100708.50;4418925;32;20716;-70
2021/05/07 06:18:22;;;;;;;2.90;2.80;;;;;;;4.76;80.41;100699.25;4417215;32;20083;-69
2021/05/07 06:20:47;;;;;;;3.78;3.58;;;;;;;4.82;79.94;100694.78;4394492;32;20328;-69
2021/05/07 06:23:13;;;;;;;3.25;3.15;;;;;;;4.97;79.95;100702.13;4418388;32;20068;-70
2021/05/07 06:25:38;;;;;;;3.60;3.42;;;;;;;5.03;80.44;100701.94;4392417;32;20163;-70
2021/05/07 06:28:04;;;;;;;2.90;2.80;;;;;;;5.06;80.64;100704.47;4408629;32;20340;-71
2021/05/07 06:30:29;;;;;;;2.80;2.70;;;;;;;4.94;80.84;100665.81;4405918;32;20076;-72
2021/05/07 06:32:54;;;;;;;2.83;2.72;;;;;;;5.23;80.67;100713.50;4403159;32;20090;-70
2021/05/07 06:35:20;;;;;;;3.17;2.97;;;;;;;4.70;80.29;100638.78;4396719;32;20064;-79
2021/05/07 06:37:45;;;;;;;3.03;2.92;;;;;;;5.23;80.31;100726.53;4398853;32;20613;-78
2021/05/07 06:40:11;;;;;;;3.20;3.10;;;;;;;5.23;80.39;100719.56;4406705;32;20057;-78
2021/05/07 06:42:38;;;;;;;3.10;3.00;;;;;;;5.13;80.25;100708.59;4416320;32;20083;-78
2021/05/07 06:45:08;;;;;;;2.80;2.70;;;;;;;4.40;79.97;100569.44;4400607;32;20582;-72
2021/05/07 06:47:33;;;;;;;3.15;3.05;;;;;;;5.41;80.17;100725.97;4400633;32;20107;-71
2021/05/07 06:49:59;;;;;;;3.10;3.00;;;;;;;5.53;80.04;100730.81;4412971;32;20089;-72
2021/05/07 06:52:24;;;;;;;2.90;2.80;;;;;;;5.58;80.04;100733.28;4395170;32;20258;-73
2021/05/07 06:54:50;;;;;;;3.08;2.97;;;;;;;5.56;80.22;100722.91;4408531;32;20126;-71
2021/05/07 06:57:15;;;;;;;3.37;3.17;;;;;;;5.62;80.31;100726.22;4398860;32;20725;-72
2021/05/07 06:59:43;;;;;;;2.90;2.80;;;;;;;5.66;80.69;100730.44;4402069;32;20080;-71
2021/05/07 07:02:08;;;;;;;3.00;2.90;;;;;;;5.79;80.75;100729.13;4401991;32;21719;-70
2021/05/07 07:04:34;;;;;;;3.47;3.28;;;;;;;5.90;80.39;100734.84;4402452;32;20086;-73
2021/05/07 07:06:59;;;;;;;2.83;2.72;;;;;;;6.10;80.47;100739.44;4410481;32;20083;-71
2021/05/07 07:09:24;;;;;;;3.30;3.20;;;;;;;5.90;79.88;100693.19;4405734;32;20573;-71
2021/05/07 07:11:51;;;;;;;2.95;2.85;;;;;;;6.13;79.54;100730.66;4395688;32;20080;-71
2021/05/07 07:14:17;;;;;;;2.90;2.80;;;;;;;6.22;79.74;100734.75;4401931;32;20076;-71
2021/05/07 07:16:42;;;;;;;2.92;2.83;;;;;;;6.30;79.18;100746.59;4401320;32;20086;-71
2021/05/07 07:19:08;;;;;;;2.90;2.80;;;;;;;6.30;79.04;100744.00;4400657;32;20064;-72
2021/05/07 07:21:33;;;;;;;2.97;2.87;;;;;;;6.44;78.26;100745.28;4406568;32;20084;-71
2021/05/07 07:23:58;;;;;;;3.08;2.97;;;;;;;6.48;78.84;100746.88;4412707;32;20641;-70
2021/05/07 07:26:24;;;;;;;2.87;2.78;;;;;;;6.24;78.09;100757.22;4411658;32;20075;-70
2021/05/07 07:28:52;;;;;;;3.30;3.20;;;;;;;5.43;80.68;100749.34;4397326;32;20068;-70
2021/05/07 07:31:18;;;;;;;2.78;2.67;;;;;;;5.50;81.25;100777.75;4424466;32;20073;-71
2021/05/07 07:33:43;;;;;;;2.92;2.83;;;;;;;5.01;80.96;100797.34;4397647;32;20631;-70
2021/05/07 07:36:08;;;;;;;2.80;2.70;;;;;;;4.65;80.71;100797.47;4407522;32;20076;-70
2021/05/07 07:38:34;;;;;;;2.80;2.70;;;;;;;4.28;81.79;100779.37;4404388;32;20068;-70
2021/05/07 07:40:59;;;;;;;2.90;2.80;;;;;;;4.37;81.90;100823.28;4402600;32;20076;-69
2021/05/07 07:43:25;;;;;;;2.80;2.70;;;;;;;4.14;83.27;100834.25;4419036;32;20079;-69
2021/05/07 07:45:50;;;;;;;3.10;3.00;;;;;;;3.89;83.36;100831.34;4398233;32;20586;-71
2021/05/07 07:48:15;;;;;;;2.80;2.70;;;;;;;3.82;83.36;100835.81;4417060;32;20069;-69
2021/05/07 07:50:41;;;;;;;2.65;2.55;;;;;;;3.77;84.01;100859.28;4398237;32;20088;-71
2021/05/07 07:53:07;;;;;;;2.70;2.60;;;;;;;3.77;83.37;100868.84;4405720;32;20104;-70
2021/05/07 07:55:32;;;;;;;2.72;2.62;;;;;;;3.42;83.84;100862.59;4397959;32;20130;-71
2021/05/07 07:57:57;;;;;;;2.90;2.70;;;;;;;3.48;84.11;100888.44;4416475;32;20072;-72
2021/05/07 08:00:23;;;;;;;2.90;2.80;;;;;;;3.43;83.96;100890.28;4402293;32;20102;-70
2021/05/07 08:02:48;;;;;;;2.70;2.60;;;;;;;3.50;84.51;100897.03;4412515;32;20112;-70
2021/05/07 08:05:14;;;;;;;2.95;2.85;;;;;;;3.57;84.39;100902.97;4414568;32;20084;-71
2021/05/07 08:07:40;;;;;;;2.75;2.65;;;;;;;3.67;84.35;100899.31;4402869;32;20136;-71
2021/05/07 08:10:06;;;;;;;2.58;2.47;;;;;;;3.84;84.16;100903.28;4402980;32;20064;-70
2021/05/07 08:12:31;;;;;;;2.50;2.40;;;;;;;3.89;83.72;100912.69;4396934;32;20094;-71
2021/05/07 08:14:57;;;;;;;2.70;2.60;;;;;;;3.92;82.91;100914.38;4419419;32;20073;-71
2021/05/07 08:17:24;;;;;;;2.80;2.70;;;;;;;4.00;83.13;100918.50;4399935;32;20729;-69
2021/05/07 08:19:50;;;;;;;2.70;2.60;;;;;;;3.88;83.30;100923.97;4412693;32;20394;-70
2021/05/07 08:22:15;;;;;;;2.67;2.58;;;;;;;3.86;82.96;100927.47;4411193;32;20962;-71
2021/05/07 08:24:41;;;;;;;2.65;2.55;;;;;;;3.99;82.03;100927.19;4402151;32;20057;-70
2021/05/07 08:27:06;;;;;;;2.95;2.80;;;;;;;4.24;81.77;100923.22;4399368;32;20072;-70
2021/05/07 08:29:32;;;;;;;2.58;2.47;;;;;;;4.52;81.12;100921.66;4414454;32;20126;-70
2021/05/07 08:31:58;;;;;;;2.70;2.60;;;;;;;4.85;80.16;100908.75;4413825;32;20130;-70
2021/05/07 08:34:23;;;;;;;2.60;2.50;;;;;;;4.94;78.23;100931.91;4414942;32;20081;-70
2021/05/07 08:36:49;;;;;;;2.83;2.72;;;;;;;5.00;78.28;100941.31;4400805;32;24942;-69
2021/05/07 08:39:14;;;;;;;2.70;2.60;;;;;;;5.30;78.98;100946.63;4418245;32;20072;-71
2021/05/07 08:41:42;;;;;;;2.90;2.80;;;;;;;5.52;78.30;100952.97;4403872;32;20078;-69
2021/05/07 08:44:08;;;;;;;2.62;2.53;;;;;;;5.44;78.52;100967.94;4402007;32;20597;-69
2021/05/07 08:46:33;;;;;;;2.78;2.67;;;;;;;5.66;78.03;100970.81;4419786;32;20077;-70
2021/05/07 08:48:58;;;;;;;2.60;2.50;;;;;;;5.13;76.16;100960.06;4400493;32;20095;-70
2021/05/07 08:51:24;;;;;;;2.70;2.60;;;;;;;5.35;74.45;100973.38;4414070;32;20135;-70
2021/05/07 08:53:49;;;;;;;2.80;2.70;;;;;;;5.76;76.24;100992.25;4397281;32;20069;-71
2021/05/07 08:56:14;;;;;;;2.72;2.62;;;;;;;6.09;77.39;100990.47;4397148;32;20193;-70
2021/05/07 08:58:40;;;;;;;2.75;2.65;;;;;;;6.41;76.02;101001.69;4433813;32;20077;-70
2021/05/07 09:01:05;;;;;;;3.03;2.92;;;;;;;6.63;73.00;101009.72;4397171;32;20056;-71
2021/05/07 09:03:46;;;;;;;3.12;3.03;;;;;;;6.61;72.53;101014.13;4393826;32;20076;-69
2021/05/07 09:06:21;;;;;;;3.33;3.20;;;;;;;6.84;76.00;101018.66;4417762;32;20081;-70
2021/05/07 09:08:47;;;;;;;3.10;3.00;;;;;;;7.01;72.93;101025.94;4406848;32;20087;-70
2021/05/07 09:11:13;;;;;;;2.90;2.80;;;;;;;7.69;72.55;101027.13;4412514;32;20149;-71
2021/05/07 09:13:38;;;;;;;3.47;3.37;;;;;;;7.72;71.93;101032.25;4409422;32;20207;-69
2021/05/07 09:16:05;;;;;;;3.10;3.00;;;;;;;8.22;70.71;101038.31;4406675;32;20072;-71
2021/05/07 09:18:40;;;;;;;3.10;3.00;;;;;;;8.04;70.08;101047.69;4423911;32;20643;-70
2021/05/07 09:21:06;;;;;;;3.20;3.10;;;;;;;8.01;68.82;101053.03;4411170;32;20072;-74
2021/05/07 09:23:31;;;;;;;3.33;3.22;;;;;;;8.03;68.22;101049.47;4416033;32;20118;-70
2021/05/07 09:26:00;;;;;;;3.10;3.00;;;;;;;8.07;67.10;101068.50;4416230;32;20085;-75
2021/05/07 09:28:25;;;;;;;3.00;2.90;;;;;;;8.01;65.90;101069.56;4399962;32;20157;-73
2021/05/07 09:30:50;;;;;;;3.03;2.92;;;;;;;8.33;66.13;101070.16;4426171;32;20128;-72
2021/05/07 09:33:16;;;;;;;3.20;3.10;;;;;;;8.45;68.27;101071.50;4408885;32;20646;-73
2021/05/07 09:35:42;;;;;;;3.28;3.17;;;;;;;7.46;67.26;100954.81;4412033;32;20154;-72
2021/05/07 09:38:08;;;;;;;3.10;3.00;;;;;;;7.84;67.07;101046.66;4403773;32;20182;-71
2021/05/07 09:40:35;;;;;;;3.20;3.10;;;;;;;7.76;66.53;101046.06;4408838;32;20133;-73
2021/05/07 09:43:14;;;;;;;3.28;3.17;;;;;;;7.90;66.87;101098.72;4414966;32;20095;-73
2021/05/07 09:45:40;;;;;;;3.35;3.25;;;;;;;7.59;66.55;101004.84;4416310;32;21036;-75
2021/05/07 09:48:22;;;;;;;3.20;3.10;;;;;;;8.45;67.39;101110.75;4426577;32;20098;-73
2021/05/07 09:50:49;;;;;;;3.20;3.10;;;;;;;8.52;65.67;101118.31;4415176;32;20083;-73
2021/05/07 09:53:15;;;;;;;3.10;3.00;;;;;;;8.37;65.03;101124.91;4410141;32;21156;-73
2021/05/07 09:55:41;;;;;;;3.30;3.20;;;;;;;8.66;64.58;101127.41;4438016;32;20137;-73
2021/05/07 09:58:06;;;;;;;3.20;3.10;;;;;;;7.82;63.27;100972.69;4430778;32;20088;-73
2021/05/07 10:00:31;;;;;;;3.70;3.60;;;;;;;9.26;64.09;101132.94;4423939;32;20895;-73
2021/05/07 10:02:57;;;;;;;3.20;3.10;;;;;;;9.07;61.02;101138.91;4414936;32;20068;-74
2021/05/07 10:05:23;;;;;;;3.20;3.10;;;;;;;8.92;63.81;101149.97;4432627;32;20938;-74
2021/05/07 10:07:49;;;;;;;3.20;3.10;;;;;;;9.16;59.36;101145.53;4413670;32;20190;-72
2021/05/07 10:10:14;;;;;;;3.47;3.37;;;;;;;9.36;57.22;101150.88;4426475;32;20860;-73
2021/05/07 10:12:41;;;;;;;3.45;3.35;;;;;;;9.51;55.74;101117.97;4423473;32;20136;-74
2021/05/07 10:15:06;;;;;;;3.30;3.20;;;;;;;8.93;58.31;101055.69;4413851;32;20086;-73
2021/05/07 10:17:32;;;;;;;3.58;3.40;;;;;;;9.25;57.16;101131.25;4424437;32;20203;-72
2021/05/07 10:19:57;;;;;;;3.30;3.20;;;;;;;9.61;55.65;101139.41;4424848;32;20688;-73
2021/05/07 10:22:35;;;;;;;3.40;3.30;;;;;;;8.88;55.80;101083.81;4411424;32;20077;-73
2021/05/07 10:25:19;;;;;;;3.47;3.37;;;;;;;9.11;57.70;101145.75;4414782;32;20140;-74
2021/05/07 10:27:45;;;;;;;3.20;3.10;;;;;;;9.29;58.52;101174.75;4412084;32;20080;-72
2021/05/07 10:30:20;;;;;;;3.40;3.30;;;;;;;9.49;55.46;101173.97;4416014;32;20174;-73
2021/05/07 10:32:57;;;;;;;3.40;3.30;;;;;;;8.99;54.19;101154.06;4412541;32;20236;-74
2021/05/07 10:35:54;;;;;;;3.25;3.15;;;;;;;9.07;56.39;101166.88;4432360;32;20263;-74
2021/05/07 10:38:19;;;;;;;4.15;3.95;;;;;;;9.31;54.48;101183.41;4409433;32;20080;-73
2021/05/07 10:40:45;;;;;;;3.40;3.30;;;;;;;8.54;52.90;100979.63;4414933;32;20581;-74
2021/05/07 10:43:11;;;;;;;3.37;3.28;;;;;;;9.09;53.41;101089.12;4411502;32;20095;-73
2021/05/07 10:45:44;;;;;;;3.50;3.40;;;;;;;9.89;52.57;101190.69;4408738;32;20064;-73
2021/05/07 10:48:12;;;;;;;3.35;3.25;;;;;;;9.94;51.80;101193.94;4427502;32;20086;-74
2021/05/07 10:50:41;;;;;;;3.53;3.42;;;;;;;9.51;53.86;101198.34;4442636;32;20084;-74
2021/05/07 10:53:06;;;;;;;3.55;3.45;;;;;;;9.49;50.25;101208.88;4428017;32;20075;-72
2021/05/07 10:55:33;;;;;;;3.37;3.28;;;;;;;8.64;54.11;101190.28;4427840;32;20140;-71
2021/05/07 10:58:01;;;;;;;4.05;3.85;;;;;;;8.64;55.09;101221.66;4427874;32;20689;-74
2021/05/07 11:00:36;;;;;;;3.40;3.30;;;;;;;8.68;54.49;101176.16;4426174;32;21004;-74
2021/05/07 11:03:02;;;;;;;3.87;3.72;;;;;;;9.14;54.40;101176.19;4420820;32;20136;-74
2021/05/07 11:05:44;;;;;;;3.30;3.20;;;;;;;8.49;51.51;101094.03;4432384;32;20203;-73
2021/05/07 11:08:09;;;;;;;3.35;3.25;;;;;;;8.93;52.41;101227.59;4419706;32;20087;-74
2021/05/07 11:10:35;;;;;;;3.30;3.20;;;;;;;9.39;53.25;101236.34;4428532;32;20099;-73
2021/05/07 11:13:00;;;;;;;3.30;3.20;;;;;;;9.41;51.77;101218.78;4432668;32;20187;-73
2021/05/07 11:15:25;;;;;;;3.20;3.10;;;;;;;9.62;49.82;101229.34;4425888;32;21064;-73
2021/05/07 11:18:04;;;;;;;3.40;3.30;;;;;;;9.58;50.42;101233.84;4414379;32;20110;-73
2021/05/07 11:20:39;;;;;;;3.40;3.30;;;;;;;9.70;50.48;101232.50;4415545;32;20592;-73
2021/05/07 11:23:06;;;;;;;3.30;3.20;;;;;;;9.50;49.39;101243.78;4427927;32;20076;-74
2021/05/07 11:25:32;;;;;;;3.50;3.40;;;;;;;9.27;50.23;101245.50;4413396;32;20582;-74
2021/05/07 11:28:12;;;;;;;3.33;3.22;;;;;;;9.77;49.68;101247.09;4429810;32;20076;-74
2021/05/07 11:30:53;;;;;;;3.42;3.33;;;;;;;9.90;48.44;101231.69;4430389;32;20439;-75